Latest Weather Observations for Bellambi

IDN60901

Issued at 2:51 pm EST Saturday 4 July 2015 (issued every 10 minutes, with the page automatically refreshed every 10 minutes)

About weather observations | Map of Sydney area stations | Latest observations for Sydney area | Other Formats
Station Details ID: 068228 Name: BELLAMBI AWS Lat: -34.37 Lon: 150.93 Height: 10.0 m
Data from the previous 72 hours. | See also: Recent months at Bellambi
Date/Time
EST
Tmp

°C
App
Tmp
°C
Dew
Point
°C
Rel
Hum
%
Delta-T

°C
Wind Press
QNH
hPa
Press
MSL
hPa
Rain
since
9 am
mm
Dir
 
Spd
km/h
Gust
km/h
Spd
kts
Gust
kts
04/02:30pm 14.5 9.8 1.1 40 5.8 SSW 15 19 8 10 - - 0.0
04/02:00pm 14.3 9.2 0.9 40 5.7 S 17 22 9 12 - - 0.0
04/01:30pm 14.2 8.6 1.5 42 5.5 SSW 20 24 11 13 - - 0.0
04/01:00pm 13.9 8.9 1.5 43 5.4 S 17 22 9 12 - - 0.0
04/12:30pm 13.3 8.8 0.0 40 5.5 S 13 19 7 10 - - 0.0
04/12:00pm 13.2 9.2 0.6 42 5.3 SSE 11 13 6 7 - - 0.0
04/11:30am 12.9 9.2 0.0 41 5.3 SSW 9 15 5 8 - - 0.0
04/11:00am 12.3 8.1 -1.2 39 5.4 WSW 11 17 6 9 - - 0.0
04/10:30am 11.6 6.5 1.0 48 4.4 NW 17 22 9 12 - - 0.0
04/10:00am 10.2 5.6 -1.2 45 4.5 WNW 13 22 7 12 - - 0.0
04/09:30am 9.8 5.4 0.4 52 3.8 WNW 13 19 7 10 - - 0.0
04/09:00am 8.6 4.2 0.1 55 3.4 WNW 13 22 7 12 - - 0.0
04/08:30am 8.1 3.5 -0.9 53 3.5 WSW 13 19 7 10 - - 0.0
04/08:00am 8.0 2.6 -1.0 53 3.5 WSW 17 24 9 13 - - 0.0
04/07:30am 8.0 2.0 -1.2 52 3.5 SW 20 28 11 15 - - 0.0
04/07:00am 7.5 2.5 -1.4 53 3.4 SW 15 19 8 10 - - 0.0
04/06:30am 8.1 4.2 -1.4 51 3.6 W 9 15 5 8 - - 0.0
04/05:30am 6.9 3.9 1.0 66 2.3 NW 6 11 3 6 - - 0.0
04/05:00am 6.9 5.0 0.8 65 2.4 CALM 0 6 0 3 - - 0.0
04/04:30am 7.2 4.2 2.1 70 2.1 NNW 7 9 4 5 - - 0.0
04/04:00am 6.4 4.2 1.1 69 2.1 SSW 2 7 1 4 - - 0.0
04/03:30am 6.7 3.6 1.6 70 2.1 NW 7 11 4 6 - - 0.0
04/03:00am 6.6 2.4 1.5 70 2.0 WNW 13 15 7 8 - - 0.0
04/02:30am 7.2 4.4 1.9 69 2.2 NW 6 9 3 5 - - 0.0
04/02:00am 7.5 4.2 2.4 70 2.1 NNW 9 11 5 6 - - 0.0
04/01:30am 6.9 5.3 2.6 74 1.8 CALM 0 0 0 0 - - 0.0
04/01:00am 6.8 4.5 2.9 76 1.6 SW 4 9 2 5 - - 0.0
04/12:30am 7.4 6.0 3.6 77 1.6 CALM 0 0 0 0 - - 0.0
04/12:00am 7.5 4.8 3.6 76 1.7 NW 7 11 4 6 - - 0.0
 
Date/Time
EST
Tmp

°C
App
Tmp
°C
Dew
Point
°C
Rel
Hum
%
Delta-T

°C
Wind Press
QNH
hPa
Press
MSL
hPa
Rain
since
9 am
mm
Dir
 
Spd
km/h
Gust
km/h
Spd
kts
Gust
kts
03/11:30pm 8.6 6.1 4.6 76 1.8 NNW 7 11 4 6 - - 0.0
03/11:00pm 8.3 4.6 4.7 78 1.6 NW 13 17 7 9 - - 0.0
03/10:30pm 7.7 3.9 3.7 76 1.7 W 13 15 7 8 - - 0.0
03/10:00pm 7.7 3.9 3.9 77 1.6 W 13 15 7 8 - - 0.0
03/09:30pm 7.5 4.4 3.4 75 1.7 W 9 13 5 7 - - 0.0
03/09:00pm 7.8 4.7 3.8 76 1.7 WNW 9 9 5 5 - - 0.0
03/08:30pm 7.7 5.0 3.6 75 1.8 W 7 9 4 5 - - 0.0
03/08:00pm 8.2 5.1 3.7 73 1.9 W 9 9 5 5 - - 0.0
03/07:30pm 9.0 6.0 4.0 71 2.2 W 9 9 5 5 - - 0.0
03/07:00pm 8.8 5.4 4.0 72 2.1 W 11 13 6 7 - - 0.0
03/06:30pm 9.0 6.0 4.0 71 2.2 W 9 11 5 6 - - 0.0
03/05:30pm 10.6 8.0 4.1 64 2.9 W 7 11 4 6 - - 0.0
03/05:00pm 12.1 8.6 3.6 56 3.8 SSE 11 17 6 9 - - 0.0
03/04:30pm 12.5 8.8 4.5 58 3.6 SSE 13 19 7 10 - - 0.0
03/04:00pm 12.7 8.1 3.9 55 4.0 SSE 17 24 9 13 - - 0.0
03/03:30pm 13.0 8.4 3.9 54 4.1 SSE 17 24 9 13 - - 0.0
03/03:00pm 13.2 8.4 4.4 55 4.0 SSE 19 24 10 13 - - 0.0
03/02:30pm 13.3 8.2 3.9 53 4.3 SSE 20 24 11 13 - - 0.0
03/02:00pm 13.5 8.6 4.1 53 4.3 SSE 19 24 10 13 - - 0.0
03/01:30pm 13.6 9.5 4.5 54 4.2 SSE 15 20 8 11 - - 0.0
03/01:00pm 13.5 8.9 3.8 52 4.4 S 17 22 9 12 - - 0.0
03/12:30pm 13.2 8.1 3.3 51 4.4 SSW 19 26 10 14 - - 0.0
03/12:00pm 13.4 8.3 4.0 53 4.3 SSW 20 30 11 16 - - 0.0
03/11:30am 13.2 7.3 3.8 53 4.2 SSW 24 32 13 17 - - 0.0
03/11:00am 12.9 6.9 3.3 52 4.3 SSW 24 32 13 17 - - 0.0
03/10:30am 12.7 6.7 3.4 53 4.1 SW 24 35 13 19 - - 0.0
03/10:00am 12.3 6.2 2.7 52 4.2 SW 24 30 13 16 - - 0.0
03/09:30am 11.9 6.1 2.4 52 4.1 SW 22 30 12 16 - - 0.0
03/09:00am 11.3 5.8 1.8 52 4.0 SW 20 28 11 15 - - 0.0
03/08:30am 10.7 5.3 1.5 53 3.9 SW 19 26 10 14 - - 0.0
03/08:00am 9.7 4.7 1.1 55 3.5 SW 17 22 9 12 - - 0.0
03/07:30am 8.9 3.8 0.6 56 3.3 SW 17 20 9 11 - - 0.0
03/07:00am 8.5 3.4 0.5 57 3.2 SW 17 28 9 15 - - 0.0
03/06:30am 8.4 3.3 0.6 58 3.1 SW 17 24 9 13 - - 0.0
03/06:00am 8.2 3.4 0.4 58 3.1 WSW 15 19 8 10 - - 0.0
03/05:30am 9.1 3.9 0.0 53 3.6 WSW 17 24 9 13 - - 0.0
03/05:00am 9.0 3.7 -0.3 52 3.7 WSW 17 22 9 12 - - 0.0
03/04:30am 9.1 2.8 -1.0 49 3.9 SW 22 28 12 15 - - 0.0
03/04:00am 8.8 2.9 -1.0 50 3.8 SW 20 28 11 15 - - 0.0
03/03:30am 8.9 2.9 -1.5 48 4.0 SW 20 28 11 15 - - 0.0
03/03:00am 8.9 2.9 -1.8 47 4.1 SW 20 28 11 15 - - 0.0
03/02:30am 9.0 2.9 -2.0 46 4.2 SW 20 28 11 15 - - 0.0
03/02:00am 9.1 3.0 -2.2 45 4.3 SW 20 28 11 15 - - 0.0
03/01:30am 9.4 2.1 -2.5 43 4.5 SW 26 35 14 19 - - 0.0
03/01:00am 9.5 2.6 -2.4 43 4.5 SW 24 35 13 19 - - 0.0
03/12:30am 9.5 3.4 -2.4 43 4.5 WSW 20 30 11 16 - - 0.0
03/12:00am 9.7 2.8 -2.6 42 4.6 SW 24 39 13 21 - - 0.0
 
Date/Time
EST
Tmp

°C
App
Tmp
°C
Dew
Point
°C
Rel
Hum
%
Delta-T

°C
Wind Press
QNH
hPa
Press
MSL
hPa
Rain
since
9 am
mm
Dir
 
Spd
km/h
Gust
km/h
Spd
kts
Gust
kts
02/11:30pm 10.0 3.5 -2.3 42 4.7 SW 22 35 12 19 - - 0.0
02/11:00pm 10.0 3.5 -2.3 42 4.7 SW 22 32 12 17 - - 0.0
02/10:30pm 10.0 3.9 -2.0 43 4.6 SW 20 26 11 14 - - 0.0
02/10:00pm 10.0 4.2 -1.7 44 4.5 WSW 19 26 10 14 - - 0.0
02/09:30pm 10.0 3.6 -1.7 44 4.5 SW 22 33 12 18 - - 0.0
02/09:00pm 10.4 4.1 -1.0 45 4.5 SW 22 35 12 19 - - 0.0
02/08:30pm 10.5 4.8 0.5 50 4.1 SW 20 26 11 14 - - 0.0
02/08:00pm 10.8 4.5 1.6 53 3.9 SW 24 32 13 17 - - 0.0
02/07:30pm 11.4 4.8 2.2 53 3.9 SW 26 39 14 21 - - 0.0
02/07:00pm 11.7 5.4 1.6 50 4.3 SW 24 39 13 21 - - 0.0
02/06:30pm 12.4 4.9 1.4 47 4.7 SW 30 52 16 28 - - 0.0
02/06:06pm 12.6 4.7 1.3 46 4.8 SW 32 50 17 27 - - 0.0
02/06:00pm 12.6 5.1 1.0 45 4.9 WSW 30 46 16 25 - - 0.0
02/05:34pm 12.4 4.5 1.1 46 4.8 W 32 52 17 28 - - 0.0
02/05:30pm 12.3 4.2 1.3 47 4.7 W 33 48 18 26 - - 0.0
02/05:00pm 12.6 4.3 1.9 48 4.6 W 35 63 19 34 - - 0.0
02/04:30pm 12.8 5.2 2.9 51 4.4 W 32 61 17 33 - - 0.0
02/04:24pm 13.0 6.2 3.1 51 4.4 W 28 48 15 26 - - 0.0
02/04:00pm 13.3 6.9 3.4 51 4.4 W 26 44 14 24 - - 0.0
02/03:37pm 13.7 7.0 3.5 50 4.6 WSW 28 46 15 25 - - 0.0
02/03:30pm 13.9 7.5 3.4 49 4.7 WSW 26 41 14 22 - - 0.0
02/03:00pm 15.0 8.0 4.1 48 5.0 W 30 46 16 25 - - 0.0
02/02:30pm 15.3 7.9 4.1 47 5.2 W 32 57 17 31 - - 0.0
02/02:19pm 15.2 8.5 3.4 45 5.4 W 28 52 15 28 - - 0.0
02/02:00pm 15.8 9.5 3.6 44 5.6 W 26 46 14 25 - - 0.0
02/01:39pm 15.8 9.0 3.3 43 5.7 WSW 28 46 15 25 - - 0.0
02/01:30pm 15.8 9.5 3.6 44 5.6 WSW 26 46 14 25 - - 0.0
02/01:00pm 16.0 9.7 3.8 44 5.6 WSW 26 43 14 23 - - 0.0
02/12:39pm 15.6 8.9 3.4 44 5.6 WSW 28 46 15 25 - - 0.0
02/12:30pm 15.6 9.7 3.7 45 5.5 WSW 24 44 13 24 - - 0.0
02/12:00pm 15.2 8.5 3.7 46 5.3 WSW 28 48 15 26 - - 0.0
02/11:30am 14.6 7.5 3.4 47 5.1 W 30 50 16 27 - - 0.0
02/11:20am 14.6 7.8 3.1 46 5.2 W 28 46 15 25 - - 0.0
02/11:00am 14.6 7.9 3.7 48 5.0 W 28 43 15 23 - - 0.0
02/10:30am 13.4 6.9 2.9 49 4.7 W 26 44 14 24 - - 0.0
02/10:00am 13.0 5.2 2.8 50 4.5 W 33 54 18 29 - - 0.0
02/09:54am 12.7 5.8 2.8 51 4.4 W 28 46 15 25 - - 0.0
02/09:30am 12.5 6.4 2.7 51 4.3 W 24 37 13 20 - - 0.0
02/09:00am 11.3 4.7 2.3 54 3.9 W 26 43 14 23 - - 0.0
02/08:30am 10.7 4.5 2.0 55 3.7 WSW 24 39 13 21 - - 0.0
02/08:22am 10.6 3.6 1.9 55 3.7 WSW 28 43 15 23 - - 0.0
02/08:00am 10.4 6.6 1.8 55 3.6 W 11 19 6 10 - - 0.0
02/07:30am 9.9 5.6 1.3 55 3.6 W 13 30 7 16 - - 0.0
02/07:00am 9.6 4.5 0.8 54 3.6 WSW 17 26 9 14 - - 0.0
02/06:30am 9.5 4.7 0.4 53 3.7 W 15 28 8 15 - - 0.0
02/06:00am 9.4 3.7 0.3 53 3.7 W 20 30 11 16 - - 0.0
02/05:30am 9.2 3.4 0.1 53 3.6 WSW 20 30 11 16 - - 0.0
02/05:00am 8.4 4.0 0.4 57 3.2 W 13 20 7 11 - - 0.0
02/04:30am 8.3 3.9 0.5 58 3.1 W 13 22 7 12 - - 0.0
02/04:00am 8.1 3.0 0.6 59 3.0 W 17 24 9 13 - - 0.0
02/03:30am 8.1 3.7 0.6 59 3.0 WNW 13 17 7 9 - - 0.0
02/03:00am 8.4 3.3 0.6 58 3.1 W 17 26 9 14 - - 0.0
02/02:30am 7.9 4.3 0.9 61 2.8 W 9 15 5 8 - - 0.0
02/02:00am 8.3 3.3 1.2 61 2.9 WSW 17 22 9 12 - - 0.0
02/01:30am 8.3 3.7 1.5 62 2.8 SW 15 26 8 14 - - 0.0
02/01:00am 8.9 3.5 1.3 59 3.1 WSW 19 30 10 16 - - 0.0
02/12:30am 8.8 3.3 1.7 61 2.9 W 20 35 11 19 - - 0.0
02/12:00am 8.9 3.6 1.8 61 2.9 W 19 28 10 15 - - 0.0
 
Date/Time
EST
Tmp

°C
App
Tmp
°C
Dew
Point
°C
Rel
Hum
%
Delta-T

°C
Wind Press
QNH
hPa
Press
MSL
hPa
Rain
since
9 am
mm
Dir
 
Spd
km/h
Gust
km/h
Spd
kts
Gust
kts
01/11:30pm 8.9 4.4 2.0 62 2.9 WNW 15 22 8 12 - - 0.0
01/11:00pm 9.2 1.8 2.1 61 3.0 SW 30 39 16 21 - - 0.0
01/10:30pm 9.2 3.0 2.1 61 3.0 W 24 37 13 20 - - 0.0
01/10:00pm 9.7 2.7 2.1 59 3.2 W 28 41 15 22 - - 0.0
01/09:30pm 10.9 4.2 1.4 52 4.0 WNW 26 39 14 21 - - 0.0
01/09:00pm 9.8 6.1 2.6 61 3.1 W 11 19 6 10 - - 0.0
01/08:30pm 10.3 6.4 3.6 63 2.9 WSW 13 19 7 10 - - 0.0
01/08:00pm 10.9 6.5 4.8 66 2.8 WSW 17 22 9 12 - - 0.0
01/07:30pm 11.2 7.6 5.1 66 2.8 WSW 13 15 7 8 - - 0.0
01/07:00pm 11.0 8.0 6.2 72 2.2 W 11 13 6 7 - - 0.0
01/06:30pm 11.1 7.9 7.0 76 2.0 W 13 13 7 7 - - 0.0
01/06:00pm 11.3 8.5 7.0 75 2.0 W 11 13 6 7 - - 0.0
01/05:30pm 12.2 10.2 7.1 71 2.5 WNW 7 11 4 6 - - 0.0
01/05:00pm 13.4 12.4 7.4 67 2.9 W 2 9 1 5 - - 0.0
01/04:30pm 14.1 12.1 7.2 63 3.4 SSE 7 9 4 5 - - 0.0
01/04:00pm 14.6 13.4 7.9 64 3.3 SSE 4 11 2 6 - - 0.0
01/03:30pm 14.1 11.8 7.6 65 3.2 SE 9 11 5 6 - - 0.0
01/03:00pm 14.7 13.1 8.0 64 3.3 SSE 6 9 3 5 - - 0.0

Latest Capital City Observations: Canberra | Sydney | Melbourne | Brisbane | Adelaide | Perth | Hobart | Darwin

Other Formats:

Comma delimited format used in spreadsheet applications
http://www.bom.gov.au/fwo/IDN60901/IDN60901.94749.axf

JavaScript Object Notation format (JSON) in row-major order
http://www.bom.gov.au/fwo/IDN60901/IDN60901.94749.json